sensor_id;sensor_type;location;lat;lon;timestamp;P1;durP1;ratioP1;P2;durP2;ratioP2
51602;SDS011;37954;51.980;5.850;2022-08-21T00:03:25;3.25;;;2.20;;
51602;SDS011;37954;51.980;5.850;2022-08-21T00:07:37;2.88;;;2.38;;
51602;SDS011;37954;51.980;5.850;2022-08-21T00:11:48;2.95;;;2.08;;
51602;SDS011;37954;51.980;5.850;2022-08-21T00:16:00;2.30;;;2.10;;
51602;SDS011;37954;51.980;5.850;2022-08-21T00:20:14;2.92;;;2.63;;
51602;SDS011;37954;51.980;5.850;2022-08-21T00:24:27;2.00;;;1.80;;
51602;SDS011;37954;51.980;5.850;2022-08-21T00:28:38;4.10;;;2.28;;
51602;SDS011;37954;51.980;5.850;2022-08-21T00:32:51;3.08;;;2.30;;
51602;SDS011;37954;51.980;5.850;2022-08-21T00:37:04;3.55;;;2.03;;
51602;SDS011;37954;51.980;5.850;2022-08-21T00:41:15;1.95;;;1.75;;
51602;SDS011;37954;51.980;5.850;2022-08-21T00:45:47;2.35;;;2.15;;
51602;SDS011;37954;51.980;5.850;2022-08-21T00:49:59;4.82;;;2.80;;
51602;SDS011;37954;51.980;5.850;2022-08-21T00:54:11;2.35;;;1.95;;
51602;SDS011;37954;51.980;5.850;2022-08-21T00:58:29;4.63;;;2.10;;
51602;SDS011;37954;51.980;5.850;2022-08-21T01:02:43;2.58;;;1.90;;
51602;SDS011;37954;51.980;5.850;2022-08-21T01:06:55;6.38;;;2.15;;
51602;SDS011;37954;51.980;5.850;2022-08-21T01:11:07;2.72;;;1.92;;
51602;SDS011;37954;51.980;5.850;2022-08-21T01:15:19;2.33;;;1.90;;
51602;SDS011;37954;51.980;5.850;2022-08-21T01:19:33;2.00;;;1.85;;
51602;SDS011;37954;51.980;5.850;2022-08-21T01:23:47;6.10;;;2.03;;
51602;SDS011;37954;51.980;5.850;2022-08-21T01:28:02;2.58;;;2.35;;
51602;SDS011;37954;51.980;5.850;2022-08-21T01:32:20;2.45;;;2.22;;
51602;SDS011;37954;51.980;5.850;2022-08-21T01:36:32;2.85;;;2.10;;
51602;SDS011;37954;51.980;5.850;2022-08-21T01:40:45;2.45;;;2.13;;
51602;SDS011;37954;51.980;5.850;2022-08-21T01:44:57;4.82;;;2.00;;
51602;SDS011;37954;51.980;5.850;2022-08-21T01:49:09;2.35;;;1.83;;
51602;SDS011;37954;51.980;5.850;2022-08-21T01:53:20;2.40;;;2.20;;
51602;SDS011;37954;51.980;5.850;2022-08-21T01:57:43;5.95;;;2.38;;
51602;SDS011;37954;51.980;5.850;2022-08-21T02:01:56;2.42;;;2.22;;
51602;SDS011;37954;51.980;5.850;2022-08-21T02:06:12;2.85;;;2.55;;
51602;SDS011;37954;51.980;5.850;2022-08-21T02:10:27;3.15;;;2.40;;
51602;SDS011;37954;51.980;5.850;2022-08-21T02:14:41;3.17;;;2.80;;
51602;SDS011;37954;51.980;5.850;2022-08-21T02:18:53;4.85;;;2.47;;
51602;SDS011;37954;51.980;5.850;2022-08-21T02:23:05;3.22;;;2.35;;
51602;SDS011;37954;51.980;5.850;2022-08-21T02:27:18;2.40;;;2.20;;
51602;SDS011;37954;51.980;5.850;2022-08-21T02:31:36;3.00;;;2.30;;
51602;SDS011;37954;51.980;5.850;2022-08-21T02:35:48;4.47;;;3.00;;
51602;SDS011;37954;51.980;5.850;2022-08-21T02:40:00;4.50;;;2.92;;
51602;SDS011;37954;51.980;5.850;2022-08-21T02:44:12;4.03;;;2.92;;
51602;SDS011;37954;51.980;5.850;2022-08-21T02:48:26;3.08;;;2.35;;
51602;SDS011;37954;51.980;5.850;2022-08-21T02:52:39;3.35;;;2.78;;
51602;SDS011;37954;51.980;5.850;2022-08-21T02:56:51;3.15;;;2.80;;
51602;SDS011;37954;51.980;5.850;2022-08-21T03:01:03;3.75;;;2.63;;
51602;SDS011;37954;51.980;5.850;2022-08-21T03:05:15;3.35;;;3.03;;
51602;SDS011;37954;51.980;5.850;2022-08-21T03:09:29;4.03;;;2.80;;
51602;SDS011;37954;51.980;5.850;2022-08-21T03:13:41;3.00;;;2.75;;
51602;SDS011;37954;51.980;5.850;2022-08-21T03:17:53;3.85;;;3.25;;
51602;SDS011;37954;51.980;5.850;2022-08-21T03:22:05;3.35;;;3.05;;
51602;SDS011;37954;51.980;5.850;2022-08-21T03:26:17;3.25;;;2.92;;
51602;SDS011;37954;51.980;5.850;2022-08-21T03:30:30;3.47;;;3.17;;
51602;SDS011;37954;51.980;5.850;2022-08-21T03:34:42;4.28;;;3.17;;
51602;SDS011;37954;51.980;5.850;2022-08-21T03:38:54;3.50;;;3.17;;
51602;SDS011;37954;51.980;5.850;2022-08-21T03:43:05;3.45;;;3.15;;
51602;SDS011;37954;51.980;5.850;2022-08-21T03:47:20;5.60;;;4.38;;
51602;SDS011;37954;51.980;5.850;2022-08-21T03:51:33;4.35;;;3.35;;
51602;SDS011;37954;51.980;5.850;2022-08-21T03:55:45;3.85;;;3.45;;
51602;SDS011;37954;51.980;5.850;2022-08-21T03:59:58;3.55;;;3.25;;
51602;SDS011;37954;51.980;5.850;2022-08-21T04:04:09;4.78;;;3.42;;
51602;SDS011;37954;51.980;5.850;2022-08-21T04:08:23;3.85;;;3.55;;
51602;SDS011;37954;51.980;5.850;2022-08-21T04:12:35;4.45;;;3.65;;
51602;SDS011;37954;51.980;5.850;2022-08-21T04:16:47;5.15;;;3.58;;
51602;SDS011;37954;51.980;5.850;2022-08-21T04:20:58;4.05;;;3.65;;
51602;SDS011;37954;51.980;5.850;2022-08-21T04:25:12;5.30;;;4.13;;
51602;SDS011;37954;51.980;5.850;2022-08-21T04:29:25;4.47;;;3.53;;
51602;SDS011;37954;51.980;5.850;2022-08-21T04:33:37;4.22;;;3.83;;
51602;SDS011;37954;51.980;5.850;2022-08-21T04:37:49;4.47;;;4.07;;
51602;SDS011;37954;51.980;5.850;2022-08-21T04:42:01;4.57;;;4.18;;
51602;SDS011;37954;51.980;5.850;2022-08-21T04:46:12;4.90;;;4.20;;
51602;SDS011;37954;51.980;5.850;2022-08-21T04:50:29;4.55;;;4.15;;
51602;SDS011;37954;51.980;5.850;2022-08-21T04:54:56;4.45;;;4.05;;
51602;SDS011;37954;51.980;5.850;2022-08-21T04:59:12;4.60;;;4.10;;
51602;SDS011;37954;51.980;5.850;2022-08-21T05:03:28;3.70;;;3.40;;
51602;SDS011;37954;51.980;5.850;2022-08-21T05:07:42;4.40;;;4.00;;
51602;SDS011;37954;51.980;5.850;2022-08-21T05:11:55;4.50;;;4.03;;
51602;SDS011;37954;51.980;5.850;2022-08-21T05:16:07;6.45;;;4.63;;
51602;SDS011;37954;51.980;5.850;2022-08-21T05:20:19;4.78;;;4.32;;
51602;SDS011;37954;51.980;5.850;2022-08-21T05:24:31;5.00;;;4.30;;
51602;SDS011;37954;51.980;5.850;2022-08-21T05:28:43;4.05;;;3.65;;
51602;SDS011;37954;51.980;5.850;2022-08-21T05:32:58;4.63;;;4.22;;
51602;SDS011;37954;51.980;5.850;2022-08-21T05:37:11;4.50;;;4.10;;
51602;SDS011;37954;51.980;5.850;2022-08-21T05:41:23;4.22;;;3.83;;
51602;SDS011;37954;51.980;5.850;2022-08-21T05:45:35;4.20;;;3.80;;
51602;SDS011;37954;51.980;5.850;2022-08-21T05:49:53;5.13;;;4.60;;
51602;SDS011;37954;51.980;5.850;2022-08-21T05:54:05;4.65;;;4.25;;
51602;SDS011;37954;51.980;5.850;2022-08-21T05:58:18;6.55;;;4.70;;
51602;SDS011;37954;51.980;5.850;2022-08-21T06:02:31;4.80;;;4.30;;
51602;SDS011;37954;51.980;5.850;2022-08-21T06:06:42;8.63;;;4.22;;
51602;SDS011;37954;51.980;5.850;2022-08-21T06:10:55;5.93;;;4.63;;
51602;SDS011;37954;51.980;5.850;2022-08-21T06:15:08;5.05;;;4.57;;
51602;SDS011;37954;51.980;5.850;2022-08-21T06:19:20;5.30;;;3.83;;
51602;SDS011;37954;51.980;5.850;2022-08-21T06:23:32;4.50;;;4.10;;
51602;SDS011;37954;51.980;5.850;2022-08-21T06:27:45;4.68;;;3.67;;
51602;SDS011;37954;51.980;5.850;2022-08-21T06:31:57;7.75;;;4.10;;
51602;SDS011;37954;51.980;5.850;2022-08-21T06:36:09;4.22;;;3.83;;
51602;SDS011;37954;51.980;5.850;2022-08-21T06:40:21;4.50;;;4.05;;
51602;SDS011;37954;51.980;5.850;2022-08-21T06:44:33;5.15;;;3.97;;
51602;SDS011;37954;51.980;5.850;2022-08-21T06:48:45;4.45;;;4.03;;
51602;SDS011;37954;51.980;5.850;2022-08-21T06:53:04;5.65;;;3.42;;
51602;SDS011;37954;51.980;5.850;2022-08-21T06:57:18;5.32;;;3.72;;
51602;SDS011;37954;51.980;5.850;2022-08-21T07:01:30;4.70;;;3.63;;
51602;SDS011;37954;51.980;5.850;2022-08-21T07:05:42;8.98;;;3.40;;
51602;SDS011;37954;51.980;5.850;2022-08-21T07:09:54;7.30;;;3.20;;
51602;SDS011;37954;51.980;5.850;2022-08-21T07:14:05;4.30;;;3.35;;
51602;SDS011;37954;51.980;5.850;2022-08-21T07:18:17;4.45;;;3.88;;
51602;SDS011;37954;51.980;5.850;2022-08-21T07:22:29;6.32;;;3.53;;
51602;SDS011;37954;51.980;5.850;2022-08-21T07:26:41;4.95;;;3.08;;
51602;SDS011;37954;51.980;5.850;2022-08-21T07:30:54;4.93;;;3.10;;
51602;SDS011;37954;51.980;5.850;2022-08-21T07:35:08;5.63;;;3.28;;
51602;SDS011;37954;51.980;5.850;2022-08-21T07:39:20;6.30;;;2.95;;
51602;SDS011;37954;51.980;5.850;2022-08-21T07:43:31;4.13;;;2.60;;
51602;SDS011;37954;51.980;5.850;2022-08-21T07:47:44;7.28;;;2.95;;
51602;SDS011;37954;51.980;5.850;2022-08-21T07:51:56;6.53;;;3.20;;
51602;SDS011;37954;51.980;5.850;2022-08-21T07:56:08;4.13;;;3.03;;
51602;SDS011;37954;51.980;5.850;2022-08-21T08:00:21;7.82;;;3.03;;
51602;SDS011;37954;51.980;5.850;2022-08-21T08:04:35;3.97;;;2.72;;
51602;SDS011;37954;51.980;5.850;2022-08-21T08:09:00;3.85;;;2.88;;
51602;SDS011;37954;51.980;5.850;2022-08-21T08:13:15;3.85;;;3.22;;
51602;SDS011;37954;51.980;5.850;2022-08-21T08:17:27;3.72;;;2.90;;
51602;SDS011;37954;51.980;5.850;2022-08-21T08:21:39;2.90;;;2.63;;
51602;SDS011;37954;51.980;5.850;2022-08-21T08:25:50;3.28;;;2.55;;
51602;SDS011;37954;51.980;5.850;2022-08-21T08:30:03;5.25;;;3.20;;
51602;SDS011;37954;51.980;5.850;2022-08-21T08:34:16;6.25;;;3.03;;
51602;SDS011;37954;51.980;5.850;2022-08-21T08:38:35;7.57;;;3.65;;
51602;SDS011;37954;51.980;5.850;2022-08-21T08:42:47;3.30;;;3.00;;
51602;SDS011;37954;51.980;5.850;2022-08-21T08:47:01;4.68;;;2.92;;
51602;SDS011;37954;51.980;5.850;2022-08-21T08:51:19;6.20;;;3.15;;
51602;SDS011;37954;51.980;5.850;2022-08-21T08:55:39;3.53;;;2.67;;
51602;SDS011;37954;51.980;5.850;2022-08-21T08:59:58;4.22;;;3.13;;
51602;SDS011;37954;51.980;5.850;2022-08-21T09:04:13;5.32;;;2.75;;
51602;SDS011;37954;51.980;5.850;2022-08-21T09:22:50;4.03;;;2.25;;
51602;SDS011;37954;51.980;5.850;2022-08-21T09:31:24;4.60;;;1.90;;
51602;SDS011;37954;51.980;5.850;2022-08-21T09:35:50;4.05;;;2.25;;
51602;SDS011;37954;51.980;5.850;2022-08-21T09:40:14;3.53;;;1.98;;
51602;SDS011;37954;51.980;5.850;2022-08-21T09:44:46;5.93;;;2.05;;
51602;SDS011;37954;51.980;5.850;2022-08-21T09:48:59;6.28;;;1.75;;
51602;SDS011;37954;51.980;5.850;2022-08-21T09:53:17;2.45;;;1.90;;
51602;SDS011;37954;51.980;5.850;2022-08-21T09:57:45;3.97;;;1.80;;
51602;SDS011;37954;51.980;5.850;2022-08-21T10:02:03;4.00;;;1.88;;
51602;SDS011;37954;51.980;5.850;2022-08-21T10:06:40;4.00;;;1.60;;
51602;SDS011;37954;51.980;5.850;2022-08-21T10:10:56;1.75;;;1.63;;
51602;SDS011;37954;51.980;5.850;2022-08-21T10:15:15;1.85;;;1.75;;
51602;SDS011;37954;51.980;5.850;2022-08-21T10:19:54;1.40;;;1.30;;
51602;SDS011;37954;51.980;5.850;2022-08-21T10:24:20;1.40;;;1.30;;
51602;SDS011;37954;51.980;5.850;2022-08-21T10:28:48;2.42;;;1.42;;
51602;SDS011;37954;51.980;5.850;2022-08-21T10:42:25;2.25;;;1.85;;
51602;SDS011;37954;51.980;5.850;2022-08-21T10:46:54;1.70;;;1.60;;
51602;SDS011;37954;51.980;5.850;2022-08-21T10:51:47;2.78;;;1.77;;
51602;SDS011;37954;51.980;5.850;2022-08-21T11:00:35;3.38;;;1.70;;
51602;SDS011;37954;51.980;5.850;2022-08-21T11:04:54;2.22;;;1.50;;
51602;SDS011;37954;51.980;5.850;2022-08-21T11:09:12;2.00;;;1.45;;
51602;SDS011;37954;51.980;5.850;2022-08-21T11:18:16;1.73;;;1.55;;
51602;SDS011;37954;51.980;5.850;2022-08-21T11:22:45;2.97;;;2.00;;
51602;SDS011;37954;51.980;5.850;2022-08-21T11:31:46;1.95;;;1.73;;
51602;SDS011;37954;51.980;5.850;2022-08-21T11:36:22;1.60;;;1.45;;
51602;SDS011;37954;51.980;5.850;2022-08-21T11:45:34;1.77;;;1.67;;
51602;SDS011;37954;51.980;5.850;2022-08-21T11:50:02;2.00;;;1.65;;
51602;SDS011;37954;51.980;5.850;2022-08-21T11:58:59;5.07;;;2.10;;
51602;SDS011;37954;51.980;5.850;2022-08-21T12:03:29;2.90;;;2.00;;
51602;SDS011;37954;51.980;5.850;2022-08-21T12:07:44;2.55;;;1.85;;
51602;SDS011;37954;51.980;5.850;2022-08-21T12:16:27;1.60;;;1.50;;
51602;SDS011;37954;51.980;5.850;2022-08-21T12:20:58;2.15;;;1.58;;
51602;SDS011;37954;51.980;5.850;2022-08-21T12:25:15;4.82;;;1.40;;
51602;SDS011;37954;51.980;5.850;2022-08-21T12:29:33;1.40;;;1.30;;
51602;SDS011;37954;51.980;5.850;2022-08-21T12:33:54;1.67;;;1.20;;
51602;SDS011;37954;51.980;5.850;2022-08-21T12:38:21;1.40;;;1.30;;
51602;SDS011;37954;51.980;5.850;2022-08-21T12:42:39;2.15;;;1.65;;
51602;SDS011;37954;51.980;5.850;2022-08-21T12:51:16;3.40;;;1.60;;
51602;SDS011;37954;51.980;5.850;2022-08-21T12:55:31;1.40;;;1.30;;
51602;SDS011;37954;51.980;5.850;2022-08-21T12:59:44;1.85;;;1.48;;
51602;SDS011;37954;51.980;5.850;2022-08-21T13:03:57;1.30;;;1.20;;
51602;SDS011;37954;51.980;5.850;2022-08-21T13:08:15;1.73;;;1.33;;
51602;SDS011;37954;51.980;5.850;2022-08-21T13:12:28;1.88;;;1.40;;
51602;SDS011;37954;51.980;5.850;2022-08-21T13:16:43;1.58;;;1.33;;
51602;SDS011;37954;51.980;5.850;2022-08-21T13:21:05;3.70;;;1.52;;
51602;SDS011;37954;51.980;5.850;2022-08-21T13:25:21;2.15;;;1.00;;
51602;SDS011;37954;51.980;5.850;2022-08-21T13:29:38;2.92;;;1.52;;
51602;SDS011;37954;51.980;5.850;2022-08-21T13:33:49;2.03;;;1.33;;
51602;SDS011;37954;51.980;5.850;2022-08-21T13:38:03;1.50;;;1.40;;
51602;SDS011;37954;51.980;5.850;2022-08-21T13:42:16;4.30;;;1.50;;
51602;SDS011;37954;51.980;5.850;2022-08-21T13:46:29;1.33;;;1.23;;
51602;SDS011;37954;51.980;5.850;2022-08-21T13:50:43;3.45;;;1.58;;
51602;SDS011;37954;51.980;5.850;2022-08-21T13:54:57;1.63;;;1.52;;
51602;SDS011;37954;51.980;5.850;2022-08-21T13:59:10;4.22;;;1.50;;
51602;SDS011;37954;51.980;5.850;2022-08-21T14:03:40;1.70;;;1.40;;
51602;SDS011;37954;51.980;5.850;2022-08-21T14:12:37;4.10;;;1.48;;
51602;SDS011;37954;51.980;5.850;2022-08-21T14:16:56;7.50;;;1.40;;
51602;SDS011;37954;51.980;5.850;2022-08-21T14:21:28;1.35;;;1.25;;
51602;SDS011;37954;51.980;5.850;2022-08-21T14:25:45;1.15;;;1.13;;
51602;SDS011;37954;51.980;5.850;2022-08-21T14:29:58;1.98;;;1.40;;
51602;SDS011;37954;51.980;5.850;2022-08-21T14:34:21;1.50;;;1.25;;
51602;SDS011;37954;51.980;5.850;2022-08-21T14:38:36;3.92;;;1.73;;
51602;SDS011;37954;51.980;5.850;2022-08-21T14:42:49;2.30;;;1.33;;
51602;SDS011;37954;51.980;5.850;2022-08-21T14:47:02;1.95;;;1.17;;
51602;SDS011;37954;51.980;5.850;2022-08-21T14:51:14;1.75;;;1.33;;
51602;SDS011;37954;51.980;5.850;2022-08-21T14:55:26;1.33;;;1.23;;
51602;SDS011;37954;51.980;5.850;2022-08-21T14:59:38;2.60;;;1.38;;
51602;SDS011;37954;51.980;5.850;2022-08-21T15:03:50;1.95;;;1.55;;
51602;SDS011;37954;51.980;5.850;2022-08-21T15:08:02;2.90;;;1.67;;
51602;SDS011;37954;51.980;5.850;2022-08-21T15:12:15;2.92;;;1.38;;
51602;SDS011;37954;51.980;5.850;2022-08-21T15:16:27;1.23;;;1.10;;
51602;SDS011;37954;51.980;5.850;2022-08-21T15:20:41;1.67;;;1.23;;
51602;SDS011;37954;51.980;5.850;2022-08-21T15:24:53;3.88;;;1.60;;
51602;SDS011;37954;51.980;5.850;2022-08-21T15:29:05;1.90;;;1.70;;
51602;SDS011;37954;51.980;5.850;2022-08-21T15:33:19;1.63;;;1.40;;
51602;SDS011;37954;51.980;5.850;2022-08-21T15:37:31;1.50;;;1.40;;
51602;SDS011;37954;51.980;5.850;2022-08-21T15:41:43;4.47;;;1.58;;
51602;SDS011;37954;51.980;5.850;2022-08-21T15:45:57;2.20;;;1.50;;
51602;SDS011;37954;51.980;5.850;2022-08-21T15:50:11;1.95;;;1.30;;
51602;SDS011;37954;51.980;5.850;2022-08-21T15:54:23;2.15;;;1.40;;
51602;SDS011;37954;51.980;5.850;2022-08-21T15:58:35;2.17;;;1.33;;
51602;SDS011;37954;51.980;5.850;2022-08-21T16:02:47;5.78;;;1.65;;
51602;SDS011;37954;51.980;5.850;2022-08-21T16:07:03;1.33;;;1.20;;
51602;SDS011;37954;51.980;5.850;2022-08-21T16:11:19;1.35;;;1.13;;
51602;SDS011;37954;51.980;5.850;2022-08-21T16:15:31;3.38;;;1.40;;
51602;SDS011;37954;51.980;5.850;2022-08-21T16:19:43;2.22;;;1.30;;
51602;SDS011;37954;51.980;5.850;2022-08-21T16:23:55;1.10;;;1.08;;
51602;SDS011;37954;51.980;5.850;2022-08-21T16:28:08;1.55;;;1.25;;
51602;SDS011;37954;51.980;5.850;2022-08-21T16:32:24;1.63;;;1.30;;
51602;SDS011;37954;51.980;5.850;2022-08-21T16:36:39;2.90;;;1.58;;
51602;SDS011;37954;51.980;5.850;2022-08-21T16:40:51;1.30;;;1.20;;
51602;SDS011;37954;51.980;5.850;2022-08-21T16:45:08;1.50;;;1.40;;
51602;SDS011;37954;51.980;5.850;2022-08-21T16:49:22;1.65;;;1.10;;
51602;SDS011;37954;51.980;5.850;2022-08-21T16:53:33;1.80;;;1.65;;
51602;SDS011;37954;51.980;5.850;2022-08-21T16:57:45;6.97;;;1.45;;
51602;SDS011;37954;51.980;5.850;2022-08-21T17:01:57;2.08;;;1.23;;
51602;SDS011;37954;51.980;5.850;2022-08-21T17:06:09;1.38;;;1.27;;
51602;SDS011;37954;51.980;5.850;2022-08-21T17:10:21;3.45;;;1.35;;
51602;SDS011;37954;51.980;5.850;2022-08-21T17:14:33;4.00;;;1.40;;
51602;SDS011;37954;51.980;5.850;2022-08-21T17:18:46;3.92;;;1.70;;
51602;SDS011;37954;51.980;5.850;2022-08-21T17:23:04;2.50;;;1.50;;
51602;SDS011;37954;51.980;5.850;2022-08-21T17:27:17;9.30;;;1.55;;
51602;SDS011;37954;51.980;5.850;2022-08-21T17:31:37;2.40;;;1.70;;
51602;SDS011;37954;51.980;5.850;2022-08-21T17:35:52;1.30;;;1.20;;
51602;SDS011;37954;51.980;5.850;2022-08-21T17:40:05;2.53;;;1.40;;
51602;SDS011;37954;51.980;5.850;2022-08-21T17:44:19;3.35;;;1.33;;
51602;SDS011;37954;51.980;5.850;2022-08-21T17:48:31;3.65;;;1.30;;
51602;SDS011;37954;51.980;5.850;2022-08-21T17:52:45;1.73;;;1.40;;
51602;SDS011;37954;51.980;5.850;2022-08-21T17:56:57;2.78;;;1.70;;
51602;SDS011;37954;51.980;5.850;2022-08-21T18:01:10;1.80;;;1.30;;
51602;SDS011;37954;51.980;5.850;2022-08-21T18:05:22;1.15;;;0.95;;
51602;SDS011;37954;51.980;5.850;2022-08-21T18:09:34;3.72;;;1.90;;
51602;SDS011;37954;51.980;5.850;2022-08-21T18:13:45;1.30;;;1.20;;
51602;SDS011;37954;51.980;5.850;2022-08-21T18:17:57;1.35;;;1.20;;
51602;SDS011;37954;51.980;5.850;2022-08-21T18:22:09;3.38;;;1.40;;
51602;SDS011;37954;51.980;5.850;2022-08-21T18:26:24;2.40;;;1.67;;
51602;SDS011;37954;51.980;5.850;2022-08-21T18:30:40;1.70;;;1.50;;
51602;SDS011;37954;51.980;5.850;2022-08-21T18:34:54;1.20;;;1.10;;
51602;SDS011;37954;51.980;5.850;2022-08-21T18:39:07;4.20;;;1.88;;
51602;SDS011;37954;51.980;5.850;2022-08-21T18:43:39;1.85;;;1.65;;
51602;SDS011;37954;51.980;5.850;2022-08-21T18:47:51;2.70;;;1.60;;
51602;SDS011;37954;51.980;5.850;2022-08-21T18:52:05;1.67;;;1.50;;
51602;SDS011;37954;51.980;5.850;2022-08-21T18:56:19;1.98;;;1.33;;
51602;SDS011;37954;51.980;5.850;2022-08-21T19:00:34;1.67;;;1.30;;
51602;SDS011;37954;51.980;5.850;2022-08-21T19:04:54;3.78;;;1.48;;
51602;SDS011;37954;51.980;5.850;2022-08-21T19:09:07;2.35;;;1.40;;
51602;SDS011;37954;51.980;5.850;2022-08-21T19:13:20;2.67;;;1.73;;
51602;SDS011;37954;51.980;5.850;2022-08-21T19:17:33;1.92;;;1.33;;
51602;SDS011;37954;51.980;5.850;2022-08-21T19:21:46;2.47;;;1.50;;
51602;SDS011;37954;51.980;5.850;2022-08-21T19:26:00;2.00;;;1.63;;
51602;SDS011;37954;51.980;5.850;2022-08-21T19:30:14;3.53;;;1.40;;
51602;SDS011;37954;51.980;5.850;2022-08-21T19:34:26;1.70;;;1.60;;
51602;SDS011;37954;51.980;5.850;2022-08-21T19:38:39;2.45;;;1.77;;
51602;SDS011;37954;51.980;5.850;2022-08-21T19:42:51;1.70;;;1.42;;
51602;SDS011;37954;51.980;5.850;2022-08-21T19:47:03;3.90;;;1.80;;
51602;SDS011;37954;51.980;5.850;2022-08-21T19:51:29;2.70;;;1.73;;
51602;SDS011;37954;51.980;5.850;2022-08-21T19:55:42;1.92;;;1.73;;
51602;SDS011;37954;51.980;5.850;2022-08-21T19:59:58;3.05;;;1.73;;
51602;SDS011;37954;51.980;5.850;2022-08-21T20:04:10;3.42;;;1.75;;
51602;SDS011;37954;51.980;5.850;2022-08-21T20:08:30;1.88;;;1.67;;
51602;SDS011;37954;51.980;5.850;2022-08-21T20:12:41;2.35;;;1.77;;
51602;SDS011;37954;51.980;5.850;2022-08-21T20:17:05;2.45;;;1.80;;
51602;SDS011;37954;51.980;5.850;2022-08-21T20:21:20;3.10;;;1.80;;
51602;SDS011;37954;51.980;5.850;2022-08-21T20:25:33;4.70;;;1.38;;
51602;SDS011;37954;51.980;5.850;2022-08-21T20:29:46;1.40;;;1.15;;
51602;SDS011;37954;51.980;5.850;2022-08-21T20:34:00;2.65;;;1.60;;
51602;SDS011;37954;51.980;5.850;2022-08-21T20:38:12;2.35;;;1.73;;
51602;SDS011;37954;51.980;5.850;2022-08-21T20:42:23;3.28;;;1.65;;
51602;SDS011;37954;51.980;5.850;2022-08-21T20:46:36;5.60;;;1.90;;
51602;SDS011;37954;51.980;5.850;2022-08-21T20:50:51;1.60;;;1.35;;
51602;SDS011;37954;51.980;5.850;2022-08-21T20:55:09;1.90;;;1.50;;
51602;SDS011;37954;51.980;5.850;2022-08-21T21:03:52;3.33;;;1.67;;
51602;SDS011;37954;51.980;5.850;2022-08-21T21:08:18;2.42;;;1.50;;
51602;SDS011;37954;51.980;5.850;2022-08-21T21:12:36;1.92;;;1.40;;
51602;SDS011;37954;51.980;5.850;2022-08-21T21:16:57;8.63;;;1.77;;
51602;SDS011;37954;51.980;5.850;2022-08-21T21:21:19;1.55;;;1.13;;
51602;SDS011;37954;51.980;5.850;2022-08-21T21:26:01;1.92;;;1.45;;
51602;SDS011;37954;51.980;5.850;2022-08-21T21:30:21;2.60;;;1.35;;
51602;SDS011;37954;51.980;5.850;2022-08-21T21:34:39;2.00;;;1.60;;
51602;SDS011;37954;51.980;5.850;2022-08-21T21:38:55;1.85;;;1.55;;
51602;SDS011;37954;51.980;5.850;2022-08-21T21:52:51;1.83;;;1.40;;
51602;SDS011;37954;51.980;5.850;2022-08-21T21:56:59;3.53;;;1.50;;
51602;SDS011;37954;51.980;5.850;2022-08-21T22:01:33;1.92;;;1.48;;
51602;SDS011;37954;51.980;5.850;2022-08-21T22:05:53;1.77;;;1.48;;
51602;SDS011;37954;51.980;5.850;2022-08-21T22:10:19;1.40;;;1.30;;
51602;SDS011;37954;51.980;5.850;2022-08-21T22:14:54;2.03;;;1.45;;
51602;SDS011;37954;51.980;5.850;2022-08-21T22:19:28;2.83;;;1.45;;
51602;SDS011;37954;51.980;5.850;2022-08-21T22:23:46;2.10;;;1.30;;
51602;SDS011;37954;51.980;5.850;2022-08-21T22:28:05;1.45;;;1.35;;
51602;SDS011;37954;51.980;5.850;2022-08-21T22:32:28;2.25;;;1.30;;
51602;SDS011;37954;51.980;5.850;2022-08-21T22:37:00;6.10;;;2.15;;
51602;SDS011;37954;51.980;5.850;2022-08-21T22:41:23;2.38;;;1.35;;
51602;SDS011;37954;51.980;5.850;2022-08-21T22:46:07;1.50;;;1.25;;
51602;SDS011;37954;51.980;5.850;2022-08-21T22:54:40;1.35;;;1.23;;
51602;SDS011;37954;51.980;5.850;2022-08-21T22:58:56;1.58;;;1.23;;
51602;SDS011;37954;51.980;5.850;2022-08-21T23:03:21;2.30;;;1.55;;
51602;SDS011;37954;51.980;5.850;2022-08-21T23:07:41;1.55;;;1.25;;
51602;SDS011;37954;51.980;5.850;2022-08-21T23:11:58;2.85;;;1.52;;
51602;SDS011;37954;51.980;5.850;2022-08-21T23:21:08;5.05;;;1.58;;
51602;SDS011;37954;51.980;5.850;2022-08-21T23:25:36;1.60;;;1.50;;
51602;SDS011;37954;51.980;5.850;2022-08-21T23:30:09;3.47;;;1.52;;
51602;SDS011;37954;51.980;5.850;2022-08-21T23:34:34;1.30;;;1.20;;
51602;SDS011;37954;51.980;5.850;2022-08-21T23:43:36;6.78;;;1.67;;
51602;SDS011;37954;51.980;5.850;2022-08-21T23:57:41;1.77;;;1.42;;
